sensor_id;sensor_type;location;lat;lon;timestamp;pressure;altitude;pressure_sealevel;temperature;humidity
72961;BME280;61141;46.204;19.774;2024-03-23T00:55:13;100248.28;;;6.09;99.16
72961;BME280;61141;46.204;19.774;2024-03-23T00:58:16;100241.13;;;6.16;99.17
72961;BME280;61141;46.204;19.774;2024-03-23T01:01:18;100250.44;;;6.15;99.34
72961;BME280;61141;46.204;19.774;2024-03-23T01:04:20;100237.84;;;6.23;99.81
72961;BME280;61141;46.204;19.774;2024-03-23T01:07:21;100234.66;;;6.33;99.69
72961;BME280;61141;46.204;19.774;2024-03-23T01:10:23;100235.12;;;6.35;99.40
72961;BME280;61141;46.204;19.774;2024-03-23T01:13:26;100234.56;;;6.29;99.54
72961;BME280;61141;46.204;19.774;2024-03-23T01:16:28;100229.75;;;6.38;99.96
72961;BME280;61141;46.204;19.774;2024-03-23T01:19:29;100215.72;;;6.36;100.00
72961;BME280;61141;46.204;19.774;2024-03-23T01:22:32;100230.63;;;6.55;100.00
72961;BME280;61141;46.204;19.774;2024-03-23T01:25:34;100213.47;;;6.26;100.00
72961;BME280;61141;46.204;19.774;2024-03-23T01:28:36;100224.56;;;6.33;100.00
72961;BME280;61141;46.204;19.774;2024-03-23T01:31:38;100213.44;;;6.38;100.00
72961;BME280;61141;46.204;19.774;2024-03-23T01:34:40;100207.00;;;6.31;100.00
72961;BME280;61141;46.204;19.774;2024-03-23T01:37:41;100201.00;;;6.25;100.00
72961;BME280;61141;46.204;19.774;2024-03-23T01:40:44;100209.59;;;6.27;100.00
72961;BME280;61141;46.204;19.774;2024-03-23T01:43:45;100212.00;;;6.29;100.00
72961;BME280;61141;46.204;19.774;2024-03-23T01:46:47;100178.59;;;6.16;100.00
72961;BME280;61141;46.204;19.774;2024-03-23T01:49:50;100207.25;;;6.26;100.00
72961;BME280;61141;46.204;19.774;2024-03-23T01:52:53;100200.63;;;6.39;100.00
72961;BME280;61141;46.204;19.774;2024-03-23T01:55:55;100200.53;;;6.35;100.00
72961;BME280;61141;46.204;19.774;2024-03-23T01:58:59;100201.12;;;6.29;100.00
72961;BME280;61141;46.204;19.774;2024-03-23T02:02:00;100199.41;;;6.24;100.00
72961;BME280;61141;46.204;19.774;2024-03-23T02:05:03;100203.19;;;6.08;100.00
72961;BME280;61141;46.204;19.774;2024-03-23T02:08:05;100174.56;;;5.86;100.00
72961;BME280;61141;46.204;19.774;2024-03-23T02:11:07;100192.66;;;6.06;100.00
72961;BME280;61141;46.204;19.774;2024-03-23T02:14:09;100195.63;;;6.01;100.00
72961;BME280;61141;46.204;19.774;2024-03-23T02:17:11;100198.22;;;6.10;100.00
72961;BME280;61141;46.204;19.774;2024-03-23T02:20:14;100183.16;;;6.00;100.00
72961;BME280;61141;46.204;19.774;2024-03-23T02:23:16;100191.88;;;6.06;100.00
72961;BME280;61141;46.204;19.774;2024-03-23T02:26:19;100194.25;;;6.07;100.00
72961;BME280;61141;46.204;19.774;2024-03-23T02:29:21;100180.00;;;5.98;100.00
72961;BME280;61141;46.204;19.774;2024-03-23T02:32:23;100191.91;;;5.94;100.00
72961;BME280;61141;46.204;19.774;2024-03-23T02:35:25;100188.81;;;5.71;100.00
72961;BME280;61141;46.204;19.774;2024-03-23T02:38:27;100187.03;;;5.63;100.00
72961;BME280;61141;46.204;19.774;2024-03-23T02:41:29;100169.56;;;5.76;100.00
72961;BME280;61141;46.204;19.774;2024-03-23T02:44:31;100180.00;;;5.86;100.00
72961;BME280;61141;46.204;19.774;2024-03-23T02:47:33;100170.72;;;5.87;100.00
72961;BME280;61141;46.204;19.774;2024-03-23T02:50:35;100174.31;;;5.91;100.00
72961;BME280;61141;46.204;19.774;2024-03-23T02:53:37;100180.66;;;5.83;100.00
72961;BME280;61141;46.204;19.774;2024-03-23T02:56:38;100168.78;;;5.75;100.00
72961;BME280;61141;46.204;19.774;2024-03-23T02:59:41;100143.53;;;5.63;100.00
72961;BME280;61141;46.204;19.774;2024-03-23T03:02:42;100166.50;;;5.77;100.00
72961;BME280;61141;46.204;19.774;2024-03-23T03:05:44;100154.63;;;5.70;100.00
72961;BME280;61141;46.204;19.774;2024-03-23T03:08:46;100160.28;;;5.77;100.00
72961;BME280;61141;46.204;19.774;2024-03-23T03:11:48;100155.19;;;5.75;100.00
72961;BME280;61141;46.204;19.774;2024-03-23T03:14:50;100160.38;;;5.80;100.00
72961;BME280;61141;46.204;19.774;2024-03-23T03:17:52;100155.19;;;5.75;100.00
72961;BME280;61141;46.204;19.774;2024-03-23T03:20:54;100155.41;;;5.70;100.00
72961;BME280;61141;46.204;19.774;2024-03-23T03:23:56;100128.37;;;5.38;100.00
72961;BME280;61141;46.204;19.774;2024-03-23T03:26:58;100133.59;;;5.55;100.00
72961;BME280;61141;46.204;19.774;2024-03-23T03:30:01;100138.78;;;5.48;100.00
72961;BME280;61141;46.204;19.774;2024-03-23T03:33:03;100126.09;;;5.27;100.00
72961;BME280;61141;46.204;19.774;2024-03-23T03:36:06;100135.63;;;5.33;100.00
72961;BME280;61141;46.204;19.774;2024-03-23T03:39:07;100144.91;;;5.45;100.00
72961;BME280;61141;46.204;19.774;2024-03-23T03:42:09;100134.28;;;5.52;100.00
72961;BME280;61141;46.204;19.774;2024-03-23T03:45:11;100125.44;;;5.43;100.00
72961;BME280;61141;46.204;19.774;2024-03-23T03:48:13;100119.09;;;5.51;100.00
72961;BME280;61141;46.204;19.774;2024-03-23T03:51:15;100118.53;;;5.57;100.00
72961;BME280;61141;46.204;19.774;2024-03-23T03:54:17;100122.72;;;5.55;100.00
72961;BME280;61141;46.204;19.774;2024-03-23T03:57:19;100117.75;;;5.57;100.00
72961;BME280;61141;46.204;19.774;2024-03-23T04:00:21;100118.06;;;5.31;100.00
72961;BME280;61141;46.204;19.774;2024-03-23T04:03:23;100116.62;;;5.21;100.00
72961;BME280;61141;46.204;19.774;2024-03-23T04:06:25;100119.44;;;5.25;100.00
72961;BME280;61141;46.204;19.774;2024-03-23T04:09:27;100098.84;;;5.24;100.00
72961;BME280;61141;46.204;19.774;2024-03-23T04:12:29;100114.25;;;5.32;100.00
72961;BME280;61141;46.204;19.774;2024-03-23T04:15:31;100114.22;;;5.20;100.00
72961;BME280;61141;46.204;19.774;2024-03-23T04:18:32;100108.34;;;5.18;100.00
72961;BME280;61141;46.204;19.774;2024-03-23T04:21:35;100122.94;;;5.13;100.00
72961;BME280;61141;46.204;19.774;2024-03-23T04:24:37;100118.19;;;5.10;100.00
72961;BME280;61141;46.204;19.774;2024-03-23T04:27:39;100122.16;;;5.13;100.00
72961;BME280;61141;46.204;19.774;2024-03-23T04:30:42;100107.09;;;5.03;100.00
72961;BME280;61141;46.204;19.774;2024-03-23T04:33:44;100124.97;;;5.04;100.00
72961;BME280;61141;46.204;19.774;2024-03-23T04:36:46;100119.28;;;4.97;100.00
72961;BME280;61141;46.204;19.774;2024-03-23T04:39:48;100122.81;;;4.98;100.00
72961;BME280;61141;46.204;19.774;2024-03-23T04:42:50;100120.09;;;4.98;100.00
72961;BME280;61141;46.204;19.774;2024-03-23T04:45:52;100109.47;;;5.05;100.00
72961;BME280;61141;46.204;19.774;2024-03-23T04:48:53;100109.59;;;5.20;100.00
72961;BME280;61141;46.204;19.774;2024-03-23T04:51:56;100112.84;;;5.14;100.00
72961;BME280;61141;46.204;19.774;2024-03-23T04:54:58;100113.44;;;5.07;100.00
72961;BME280;61141;46.204;19.774;2024-03-23T04:58:00;100099.06;;;5.07;100.00
72961;BME280;61141;46.204;19.774;2024-03-23T05:01:02;100109.16;;;5.18;100.00
72961;BME280;61141;46.204;19.774;2024-03-23T05:04:04;100102.81;;;5.14;100.00
72961;BME280;61141;46.204;19.774;2024-03-23T05:07:06;100108.37;;;5.30;100.00
72961;BME280;61141;46.204;19.774;2024-03-23T05:10:09;100095.56;;;5.30;100.00
72961;BME280;61141;46.204;19.774;2024-03-23T05:13:15;100094.66;;;5.26;100.00
72961;BME280;61141;46.204;19.774;2024-03-23T05:16:17;100100.06;;;5.51;100.00
72961;BME280;61141;46.204;19.774;2024-03-23T05:19:18;100101.22;;;5.38;100.00
72961;BME280;61141;46.204;19.774;2024-03-23T05:22:20;100098.03;;;5.48;100.00
72961;BME280;61141;46.204;19.774;2024-03-23T05:25:22;100101.31;;;5.53;100.00
72961;BME280;61141;46.204;19.774;2024-03-23T05:28:24;100082.62;;;5.64;100.00
72961;BME280;61141;46.204;19.774;2024-03-23T05:31:28;100075.63;;;5.51;100.00
72961;BME280;61141;46.204;19.774;2024-03-23T05:34:30;100103.66;;;5.79;100.00
72961;BME280;61141;46.204;19.774;2024-03-23T05:37:31;100097.31;;;5.99;100.00
72961;BME280;61141;46.204;19.774;2024-03-23T05:40:35;100084.31;;;6.20;100.00
72961;BME280;61141;46.204;19.774;2024-03-23T05:43:38;100096.47;;;6.38;100.00
72961;BME280;61141;46.204;19.774;2024-03-23T05:46:41;100093.19;;;6.61;100.00
72961;BME280;61141;46.204;19.774;2024-03-23T05:49:43;100094.94;;;6.69;100.00
72961;BME280;61141;46.204;19.774;2024-03-23T05:52:45;100078.97;;;6.83;100.00
72961;BME280;61141;46.204;19.774;2024-03-23T05:55:47;100088.28;;;7.13;100.00
72961;BME280;61141;46.204;19.774;2024-03-23T05:58:52;100093.28;;;7.42;100.00
72961;BME280;61141;46.204;19.774;2024-03-23T06:01:54;100080.13;;;7.63;100.00
72961;BME280;61141;46.204;19.774;2024-03-23T06:04:56;100074.31;;;8.00;100.00
72961;BME280;61141;46.204;19.774;2024-03-23T06:07:58;100087.66;;;8.24;99.85
72961;BME280;61141;46.204;19.774;2024-03-23T06:11:00;100089.38;;;8.51;99.37
72961;BME280;61141;46.204;19.774;2024-03-23T06:14:02;100089.72;;;8.69;99.86
72961;BME280;61141;46.204;19.774;2024-03-23T06:17:04;100087.34;;;8.90;100.00
72961;BME280;61141;46.204;19.774;2024-03-23T06:20:07;100093.69;;;9.17;99.65
72961;BME280;61141;46.204;19.774;2024-03-23T06:23:09;100096.00;;;9.41;98.89
72961;BME280;61141;46.204;19.774;2024-03-23T06:26:11;100088.53;;;9.64;96.53
72961;BME280;61141;46.204;19.774;2024-03-23T06:29:13;100094.81;;;9.94;94.48
72961;BME280;61141;46.204;19.774;2024-03-23T06:32:15;100091.66;;;10.19;91.19
72961;BME280;61141;46.204;19.774;2024-03-23T06:35:17;100097.31;;;10.36;89.94
72961;BME280;61141;46.204;19.774;2024-03-23T06:38:19;100095.09;;;10.45;88.60
72961;BME280;61141;46.204;19.774;2024-03-23T06:41:20;100085.97;;;10.71;88.07
72961;BME280;61141;46.204;19.774;2024-03-23T06:44:22;100089.31;;;10.94;85.72
72961;BME280;61141;46.204;19.774;2024-03-23T06:47:24;100071.81;;;11.06;84.62
72961;BME280;61141;46.204;19.774;2024-03-23T06:50:27;100087.28;;;11.32;83.20
72961;BME280;61141;46.204;19.774;2024-03-23T06:53:30;100078.75;;;11.44;82.77
72961;BME280;61141;46.204;19.774;2024-03-23T06:56:32;100075.84;;;11.70;81.42
72961;BME280;61141;46.204;19.774;2024-03-23T06:59:34;100074.31;;;11.76;80.52
72961;BME280;61141;46.204;19.774;2024-03-23T07:02:37;100074.37;;;11.94;80.31
72961;BME280;61141;46.204;19.774;2024-03-23T07:05:39;100076.03;;;12.09;79.89
72961;BME280;61141;46.204;19.774;2024-03-23T07:08:41;100073.34;;;12.26;78.83
72961;BME280;61141;46.204;19.774;2024-03-23T07:11:43;100081.66;;;12.44;78.59
72961;BME280;61141;46.204;19.774;2024-03-23T07:14:45;100072.66;;;12.65;76.44
72961;BME280;61141;46.204;19.774;2024-03-23T07:17:47;100063.66;;;12.82;74.68
72961;BME280;61141;46.204;19.774;2024-03-23T07:20:56;100076.25;;;12.93;75.83
72961;BME280;61141;46.204;19.774;2024-03-23T07:24:01;100066.09;;;13.08;75.49
72961;BME280;61141;46.204;19.774;2024-03-23T07:27:02;100077.09;;;13.22;74.58
72961;BME280;61141;46.204;19.774;2024-03-23T07:30:07;100061.34;;;13.37;73.80
72961;BME280;61141;46.204;19.774;2024-03-23T07:33:10;100067.63;;;13.59;73.43
72961;BME280;61141;46.204;19.774;2024-03-23T07:36:12;100062.44;;;13.82;69.29
72961;BME280;61141;46.204;19.774;2024-03-23T07:39:14;100063.56;;;13.95;70.58
72961;BME280;61141;46.204;19.774;2024-03-23T07:42:16;100071.03;;;14.01;65.45
72961;BME280;61141;46.204;19.774;2024-03-23T07:45:18;100065.09;;;14.10;67.59
72961;BME280;61141;46.204;19.774;2024-03-23T07:48:23;100057.97;;;14.23;67.38
72961;BME280;61141;46.204;19.774;2024-03-23T07:51:25;100058.72;;;14.34;64.63
72961;BME280;61141;46.204;19.774;2024-03-23T07:54:27;100052.78;;;14.43;64.69
72961;BME280;61141;46.204;19.774;2024-03-23T07:57:28;100050.72;;;14.57;64.54
72961;BME280;61141;46.204;19.774;2024-03-23T08:00:30;100045.09;;;14.75;63.83
72961;BME280;61141;46.204;19.774;2024-03-23T08:03:32;100033.94;;;14.89;63.95
72961;BME280;61141;46.204;19.774;2024-03-23T08:06:34;100031.91;;;15.00;64.45
72961;BME280;61141;46.204;19.774;2024-03-23T08:09:36;100026.25;;;15.18;65.73
72961;BME280;61141;46.204;19.774;2024-03-23T08:12:38;100015.56;;;15.20;66.32
72961;BME280;61141;46.204;19.774;2024-03-23T08:15:40;100029.56;;;15.43;65.63
72961;BME280;61141;46.204;19.774;2024-03-23T08:18:41;100024.75;;;15.54;66.06
72961;BME280;61141;46.204;19.774;2024-03-23T08:21:43;100025.19;;;15.49;65.03
72961;BME280;61141;46.204;19.774;2024-03-23T08:24:45;100017.53;;;15.60;66.01
72961;BME280;61141;46.204;19.774;2024-03-23T08:27:47;100018.97;;;15.75;66.66
72961;BME280;61141;46.204;19.774;2024-03-23T08:30:49;100010.03;;;15.98;65.52
72961;BME280;61141;46.204;19.774;2024-03-23T08:33:51;100013.84;;;16.08;64.03
72961;BME280;61141;46.204;19.774;2024-03-23T08:36:52;99997.56;;;16.13;63.80
72961;BME280;61141;46.204;19.774;2024-03-23T08:39:54;100003.81;;;16.21;63.28
72961;BME280;61141;46.204;19.774;2024-03-23T08:42:56;100004.78;;;16.37;62.54
72961;BME280;61141;46.204;19.774;2024-03-23T08:46:08;99989.72;;;16.38;61.43
72961;BME280;61141;46.204;19.774;2024-03-23T08:49:10;99997.19;;;16.68;60.47
72961;BME280;61141;46.204;19.774;2024-03-23T08:52:13;99987.34;;;16.67;58.53
72961;BME280;61141;46.204;19.774;2024-03-23T08:55:15;99984.38;;;16.81;60.22
72961;BME280;61141;46.204;19.774;2024-03-23T08:58:17;99965.81;;;17.01;60.18
72961;BME280;61141;46.204;19.774;2024-03-23T09:01:21;99962.31;;;17.21;57.84
72961;BME280;61141;46.204;19.774;2024-03-23T09:04:25;99958.34;;;17.22;56.21
72961;BME280;61141;46.204;19.774;2024-03-23T09:07:27;99956.78;;;17.21;56.51
72961;BME280;61141;46.204;19.774;2024-03-23T09:10:29;99923.72;;;17.14;57.02
72961;BME280;61141;46.204;19.774;2024-03-23T09:13:34;99923.16;;;17.42;56.61
72961;BME280;61141;46.204;19.774;2024-03-23T09:16:36;99937.91;;;17.78;56.35
72961;BME280;61141;46.204;19.774;2024-03-23T09:19:38;99934.63;;;17.83;56.75
72961;BME280;61141;46.204;19.774;2024-03-23T09:22:41;99929.31;;;17.73;54.09
72961;BME280;61141;46.204;19.774;2024-03-23T09:25:43;99929.50;;;17.82;55.36
72961;BME280;61141;46.204;19.774;2024-03-23T09:28:48;99915.34;;;17.76;54.38
72961;BME280;61141;46.204;19.774;2024-03-23T09:31:50;99911.66;;;17.83;53.72
72961;BME280;61141;46.204;19.774;2024-03-23T09:34:52;99913.41;;;17.93;54.21
72961;BME280;61141;46.204;19.774;2024-03-23T09:37:53;99908.50;;;18.00;54.07
72961;BME280;61141;46.204;19.774;2024-03-23T09:40:56;99905.66;;;18.20;54.09
72961;BME280;61141;46.204;19.774;2024-03-23T09:43:58;99907.84;;;18.29;53.95
72961;BME280;61141;46.204;19.774;2024-03-23T09:47:00;99904.91;;;18.19;53.50
72961;BME280;61141;46.204;19.774;2024-03-23T09:50:03;99874.75;;;18.38;52.24
72961;BME280;61141;46.204;19.774;2024-03-23T09:53:07;99884.19;;;18.72;52.36
72961;BME280;61141;46.204;19.774;2024-03-23T09:56:09;99874.13;;;18.46;51.28
72961;BME280;61141;46.204;19.774;2024-03-23T09:59:11;99878.37;;;18.67;51.66
72961;BME280;61141;46.204;19.774;2024-03-23T10:02:15;99854.69;;;18.50;51.33
72961;BME280;61141;46.204;19.774;2024-03-23T10:05:22;99859.88;;;18.64;51.03
72961;BME280;61141;46.204;19.774;2024-03-23T10:08:24;99862.84;;;18.86;51.10
72961;BME280;61141;46.204;19.774;2024-03-23T10:11:27;99849.69;;;18.73;50.35
72961;BME280;61141;46.204;19.774;2024-03-23T10:14:30;99845.72;;;18.74;51.29
72961;BME280;61141;46.204;19.774;2024-03-23T10:17:32;99842.09;;;18.90;50.00
72961;BME280;61141;46.204;19.774;2024-03-23T10:20:35;99819.19;;;19.02;50.63
72961;BME280;61141;46.204;19.774;2024-03-23T10:23:42;99827.13;;;19.16;49.47
72961;BME280;61141;46.204;19.774;2024-03-23T10:26:56;99818.63;;;19.07;48.79
72961;BME280;61141;46.204;19.774;2024-03-23T10:30:08;99808.88;;;19.15;48.79
72961;BME280;61141;46.204;19.774;2024-03-23T10:33:10;99805.22;;;19.18;47.19
72961;BME280;61141;46.204;19.774;2024-03-23T10:36:13;99806.81;;;19.32;47.49
72961;BME280;61141;46.204;19.774;2024-03-23T10:39:16;99804.78;;;19.20;46.02
72961;BME280;61141;46.204;19.774;2024-03-23T10:42:19;99790.72;;;19.40;47.37
72961;BME280;61141;46.204;19.774;2024-03-23T10:45:24;99789.25;;;19.35;46.62
72961;BME280;61141;46.204;19.774;2024-03-23T10:48:26;99782.47;;;19.23;47.82
72961;BME280;61141;46.204;19.774;2024-03-23T10:51:28;99781.19;;;19.41;47.65
72961;BME280;61141;46.204;19.774;2024-03-23T10:54:31;99778.31;;;19.57;46.84
72961;BME280;61141;46.204;19.774;2024-03-23T10:57:51;99768.62;;;19.49;45.95
72961;BME280;61141;46.204;19.774;2024-03-23T11:00:55;99758.19;;;19.65;46.54
72961;BME280;61141;46.204;19.774;2024-03-23T11:03:56;99745.06;;;19.53;46.17
72961;BME280;61141;46.204;19.774;2024-03-23T11:06:58;99732.06;;;19.75;45.76
72961;BME280;61141;46.204;19.774;2024-03-23T11:10:00;99728.28;;;19.82;46.07
72961;BME280;61141;46.204;19.774;2024-03-23T11:13:21;99725.03;;;19.83;45.09
72961;BME280;61141;46.204;19.774;2024-03-23T11:16:25;99712.91;;;19.90;46.04
72961;BME280;61141;46.204;19.774;2024-03-23T11:19:36;99717.44;;;20.09;44.38
72961;BME280;61141;46.204;19.774;2024-03-23T11:25:43;99696.37;;;19.74;43.29
72961;BME280;61141;46.204;19.774;2024-03-23T11:28:44;99687.78;;;19.93;43.33
72961;BME280;61141;46.204;19.774;2024-03-23T11:31:47;99687.78;;;19.81;43.06
72961;BME280;61141;46.204;19.774;2024-03-23T11:34:49;99664.09;;;19.89;43.03
72961;BME280;61141;46.204;19.774;2024-03-23T11:38:14;99673.66;;;20.22;42.85
72961;BME280;61141;46.204;19.774;2024-03-23T11:41:16;99660.09;;;20.24;41.47
72961;BME280;61141;46.204;19.774;2024-03-23T11:44:23;99658.28;;;20.52;41.84
72961;BME280;61141;46.204;19.774;2024-03-23T11:47:26;99662.56;;;20.44;40.70
72961;BME280;61141;46.204;19.774;2024-03-23T11:50:28;99651.31;;;20.13;40.07
72961;BME280;61141;46.204;19.774;2024-03-23T11:53:30;99640.13;;;20.04;40.91
72961;BME280;61141;46.204;19.774;2024-03-23T11:56:33;99634.31;;;20.11;40.50
72961;BME280;61141;46.204;19.774;2024-03-23T11:59:36;99632.53;;;20.17;40.79
72961;BME280;61141;46.204;19.774;2024-03-23T12:02:39;99608.66;;;20.07;40.56
72961;BME280;61141;46.204;19.774;2024-03-23T12:05:41;99614.13;;;20.54;41.03
72961;BME280;61141;46.204;19.774;2024-03-23T12:08:42;99612.66;;;21.02;40.00
72961;BME280;61141;46.204;19.774;2024-03-23T12:11:44;99597.75;;;21.18;38.86
72961;BME280;61141;46.204;19.774;2024-03-23T12:15:03;99595.94;;;21.02;39.80
72961;BME280;61141;46.204;19.774;2024-03-23T12:18:07;99590.72;;;20.73;39.94
72961;BME280;61141;46.204;19.774;2024-03-23T12:21:09;99585.25;;;20.39;40.27
72961;BME280;61141;46.204;19.774;2024-03-23T12:24:11;99576.78;;;20.21;40.72
72961;BME280;61141;46.204;19.774;2024-03-23T12:27:12;99562.28;;;20.47;40.70
72961;BME280;61141;46.204;19.774;2024-03-23T12:30:14;99567.53;;;21.07;40.37
72961;BME280;61141;46.204;19.774;2024-03-23T12:33:17;99550.34;;;21.08;39.11
72961;BME280;61141;46.204;19.774;2024-03-23T12:36:19;99540.34;;;21.38;39.16
72961;BME280;61141;46.204;19.774;2024-03-23T12:39:20;99555.53;;;21.46;39.02
72961;BME280;61141;46.204;19.774;2024-03-23T12:42:23;99542.00;;;21.08;39.52
72961;BME280;61141;46.204;19.774;2024-03-23T12:45:24;99549.22;;;21.06;38.75
72961;BME280;61141;46.204;19.774;2024-03-23T12:48:26;99526.84;;;21.19;38.30
72961;BME280;61141;46.204;19.774;2024-03-23T12:51:28;99533.34;;;21.25;38.38
72961;BME280;61141;46.204;19.774;2024-03-23T12:54:30;99512.38;;;21.02;38.31
72961;BME280;61141;46.204;19.774;2024-03-23T12:57:33;99515.63;;;21.00;38.69
72961;BME280;61141;46.204;19.774;2024-03-23T13:00:35;99522.25;;;21.34;37.99
72961;BME280;61141;46.204;19.774;2024-03-23T13:03:37;99520.53;;;21.54;37.91
72961;BME280;61141;46.204;19.774;2024-03-23T13:06:39;99513.13;;;21.79;37.96
72961;BME280;61141;46.204;19.774;2024-03-23T13:09:41;99508.63;;;21.72;36.91
72961;BME280;61141;46.204;19.774;2024-03-23T13:12:43;99519.00;;;21.72;37.66
72961;BME280;61141;46.204;19.774;2024-03-23T13:15:51;99504.75;;;21.70;37.50
72961;BME280;61141;46.204;19.774;2024-03-23T13:18:53;99482.00;;;21.62;36.70
72961;BME280;61141;46.204;19.774;2024-03-23T13:21:55;99505.06;;;21.72;36.91
72961;BME280;61141;46.204;19.774;2024-03-23T13:24:57;99491.75;;;21.57;36.51
72961;BME280;61141;46.204;19.774;2024-03-23T13:27:59;99471.47;;;21.48;36.99
72961;BME280;61141;46.204;19.774;2024-03-23T13:31:01;99492.06;;;21.50;36.90
72961;BME280;61141;46.204;19.774;2024-03-23T13:34:05;99483.37;;;21.66;37.31
72961;BME280;61141;46.204;19.774;2024-03-23T13:37:07;99461.22;;;21.63;37.05
72961;BME280;61141;46.204;19.774;2024-03-23T13:40:09;99468.81;;;21.72;37.25
72961;BME280;61141;46.204;19.774;2024-03-23T13:43:11;99467.72;;;21.78;37.28
72961;BME280;61141;46.204;19.774;2024-03-23T13:46:13;99439.41;;;21.52;36.60
72961;BME280;61141;46.204;19.774;2024-03-23T13:49:25;99437.37;;;21.35;37.23
72961;BME280;61141;46.204;19.774;2024-03-23T13:52:28;99451.94;;;21.39;37.34
72961;BME280;61141;46.204;19.774;2024-03-23T13:55:30;99446.22;;;21.15;36.61
72961;BME280;61141;46.204;19.774;2024-03-23T13:58:32;99441.38;;;21.06;36.55
72961;BME280;61141;46.204;19.774;2024-03-23T14:01:34;99418.91;;;20.92;36.55
72961;BME280;61141;46.204;19.774;2024-03-23T14:04:36;99423.09;;;20.96;37.49
72961;BME280;61141;46.204;19.774;2024-03-23T14:07:39;99422.34;;;20.96;37.35
72961;BME280;61141;46.204;19.774;2024-03-23T14:10:42;99414.59;;;20.82;37.52
72961;BME280;61141;46.204;19.774;2024-03-23T14:13:44;99404.38;;;20.79;37.42
72961;BME280;61141;46.204;19.774;2024-03-23T14:16:46;99402.06;;;20.86;37.47
72961;BME280;61141;46.204;19.774;2024-03-23T14:19:48;99399.09;;;20.81;38.81
72961;BME280;61141;46.204;19.774;2024-03-23T14:22:52;99389.50;;;20.73;37.65
72961;BME280;61141;46.204;19.774;2024-03-23T14:25:54;99390.44;;;20.70;38.12
72961;BME280;61141;46.204;19.774;2024-03-23T14:28:56;99395.03;;;20.64;37.69
72961;BME280;61141;46.204;19.774;2024-03-23T14:31:58;99383.75;;;20.58;38.26
72961;BME280;61141;46.204;19.774;2024-03-23T14:35:01;99368.41;;;20.44;38.96
72961;BME280;61141;46.204;19.774;2024-03-23T14:38:03;99379.53;;;20.44;38.28
72961;BME280;61141;46.204;19.774;2024-03-23T14:41:05;99361.72;;;20.33;38.24
72961;BME280;61141;46.204;19.774;2024-03-23T14:44:07;99377.06;;;20.37;38.51
72961;BME280;61141;46.204;19.774;2024-03-23T14:47:09;99374.28;;;20.37;38.51
72961;BME280;61141;46.204;19.774;2024-03-23T14:50:10;99375.19;;;20.34;38.94
72961;BME280;61141;46.204;19.774;2024-03-23T14:53:17;99374.72;;;20.27;38.80
72961;BME280;61141;46.204;19.774;2024-03-23T14:56:18;99367.22;;;20.15;39.09
72961;BME280;61141;46.204;19.774;2024-03-23T14:59:20;99366.25;;;20.09;38.97
72961;BME280;61141;46.204;19.774;2024-03-23T15:02:22;99357.44;;;20.01;38.68
72961;BME280;61141;46.204;19.774;2024-03-23T15:05:25;99357.69;;;19.94;39.43
72961;BME280;61141;46.204;19.774;2024-03-23T15:08:27;99350.53;;;19.84;38.75
72961;BME280;61141;46.204;19.774;2024-03-23T15:11:29;99356.41;;;19.77;38.28
72961;BME280;61141;46.204;19.774;2024-03-23T15:14:31;99352.78;;;19.67;39.21
72961;BME280;61141;46.204;19.774;2024-03-23T15:17:33;99356.16;;;19.62;39.15
72961;BME280;61141;46.204;19.774;2024-03-23T15:20:39;99357.53;;;19.58;38.08
72961;BME280;61141;46.204;19.774;2024-03-23T15:23:41;99364.56;;;19.50;39.09
72961;BME280;61141;46.204;19.774;2024-03-23T15:26:45;99349.94;;;19.36;39.93
72961;BME280;61141;46.204;19.774;2024-03-23T15:29:47;99344.97;;;19.31;40.40
72961;BME280;61141;46.204;19.774;2024-03-23T15:32:48;99335.81;;;19.22;40.72
72961;BME280;61141;46.204;19.774;2024-03-23T15:35:50;99350.00;;;19.24;40.59
72961;BME280;61141;46.204;19.774;2024-03-23T15:38:52;99353.50;;;19.15;40.85
72961;BME280;61141;46.204;19.774;2024-03-23T15:41:56;99349.84;;;19.06;41.10
72961;BME280;61141;46.204;19.774;2024-03-23T15:44:58;99350.91;;;18.99;41.30
72961;BME280;61141;46.204;19.774;2024-03-23T15:48:01;99342.50;;;18.90;41.35
72961;BME280;61141;46.204;19.774;2024-03-23T15:51:03;99338.41;;;18.82;41.52
72961;BME280;61141;46.204;19.774;2024-03-23T15:54:05;99336.44;;;18.70;41.96
72961;BME280;61141;46.204;19.774;2024-03-23T15:57:07;99338.25;;;18.64;42.82
72961;BME280;61141;46.204;19.774;2024-03-23T16:00:10;99333.41;;;18.55;42.84
72961;BME280;61141;46.204;19.774;2024-03-23T16:03:13;99324.63;;;18.44;42.99
72961;BME280;61141;46.204;19.774;2024-03-23T16:06:15;99339.72;;;18.43;43.60
72961;BME280;61141;46.204;19.774;2024-03-23T16:09:16;99318.44;;;18.28;43.51
72961;BME280;61141;46.204;19.774;2024-03-23T16:12:20;99329.87;;;18.30;43.86
72961;BME280;61141;46.204;19.774;2024-03-23T16:15:22;99335.31;;;18.20;44.38
72961;BME280;61141;46.204;19.774;2024-03-23T16:18:24;99333.66;;;18.10;45.42
72961;BME280;61141;46.204;19.774;2024-03-23T16:21:26;99332.66;;;18.04;45.58
72961;BME280;61141;46.204;19.774;2024-03-23T16:24:29;99331.91;;;17.91;46.24
72961;BME280;61141;46.204;19.774;2024-03-23T16:27:31;99333.34;;;17.83;46.67
72961;BME280;61141;46.204;19.774;2024-03-23T16:30:33;99329.22;;;17.75;47.05
72961;BME280;61141;46.204;19.774;2024-03-23T16:33:36;99329.09;;;17.66;47.41
72961;BME280;61141;46.204;19.774;2024-03-23T16:36:39;99325.00;;;17.58;47.58
72961;BME280;61141;46.204;19.774;2024-03-23T16:39:40;99331.94;;;17.50;48.56
72961;BME280;61141;46.204;19.774;2024-03-23T16:42:42;99329.47;;;17.39;48.71
72961;BME280;61141;46.204;19.774;2024-03-23T16:45:53;99310.28;;;17.20;49.51